Time;durP1;ratioP1;P1;durP2;ratioP2;P2;SDS_P1;SDS_P2;PMS_P1;PMS_P2;Temp;Humidity;BMP_temperature;BMP_pressure;BME280_temperature;BME280_humidity;BME280_pressure;Samples;Min_cycle;Max_cycle;Signal;HPM_P1;HPM_P2
2022/07/26 00:00:04;;;;;;;1.50;1.00;;;;;;;25.38;44.09;99309.31;341047;28;1535;-73
2022/07/26 00:00:18;;;;;;;2.53;1.02;;;;;;;25.26;44.53;99315.84;341426;28;1095;-73
2022/07/26 00:00:30;;;;;;;3.50;1.00;;;;;;;25.17;44.19;99311.41;341601;28;1249;-73
2022/07/26 00:00:43;;;;;;;3.60;0.95;;;;;;;25.19;43.73;99312.09;341452;28;975;-73
2022/07/26 00:00:55;;;;;;;3.17;0.90;;;;;;;25.25;43.76;99307.06;341409;28;1329;-73
2022/07/26 00:01:07;;;;;;;3.47;1.00;;;;;;;25.33;43.58;99313.41;341324;28;1143;-73
2022/07/26 00:01:20;;;;;;;2.40;1.00;;;;;;;25.36;43.37;99313.13;341269;28;1281;-73
2022/07/26 00:01:33;;;;;;;2.78;1.00;;;;;;;25.37;43.35;99310.28;341033;28;1157;-73
2022/07/26 00:01:45;;;;;;;2.53;1.00;;;;;;;25.38;43.64;99313.81;341214;28;1243;-73
2022/07/26 00:01:57;;;;;;;3.45;1.00;;;;;;;25.38;43.45;99311.97;341253;28;1034;-73
2022/07/26 00:02:09;;;;;;;2.35;0.98;;;;;;;25.42;43.18;99312.50;341165;28;1023;-74
2022/07/26 00:02:28;;;;;;;1.70;0.90;;;;;;;25.41;43.37;99316.97;341354;28;1087;-74
2022/07/26 00:02:41;;;;;;;1.52;0.93;;;;;;;25.42;43.17;99312.50;340810;29;1073;-73
2022/07/26 00:02:58;;;;;;;1.80;1.02;;;;;;;25.48;42.72;99306.56;341330;28;1093;-73
2022/07/26 00:03:10;;;;;;;2.30;1.10;;;;;;;25.49;42.77;99309.09;341010;29;1222;-74
2022/07/26 00:03:22;;;;;;;2.70;1.20;;;;;;;25.52;42.41;99308.75;341118;29;1130;-74
2022/07/26 00:03:34;;;;;;;2.35;1.10;;;;;;;25.51;42.70;99307.09;340447;29;2034;-74
2022/07/26 00:03:48;;;;;;;3.13;1.05;;;;;;;25.51;42.58;99306.25;340026;29;1983;-74
2022/07/26 00:04:00;;;;;;;2.42;0.88;;;;;;;25.51;42.88;99307.09;340852;29;1204;-74
2022/07/26 00:04:12;;;;;;;2.10;0.90;;;;;;;25.44;42.79;99302.53;341005;29;1051;-73
2022/07/26 00:04:24;;;;;;;1.73;1.00;;;;;;;25.44;42.96;99307.88;341599;28;1585;-74
2022/07/26 00:04:36;;;;;;;3.00;0.95;;;;;;;25.43;43.09;99303.53;342368;28;1237;-74
2022/07/26 00:04:49;;;;;;;2.67;0.90;;;;;;;25.44;43.29;99300.72;342000;28;1030;-74
2022/07/26 00:05:00;;;;;;;2.50;1.00;;;;;;;25.44;43.49;99303.38;340950;28;1082;-74
2022/07/26 00:05:13;;;;;;;1.60;1.00;;;;;;;25.38;43.75;99304.00;341504;28;999;-74
2022/07/26 00:05:25;;;;;;;1.92;1.02;;;;;;;25.37;43.12;99304.97;341268;28;1079;-74
2022/07/26 00:05:37;;;;;;;2.10;1.00;;;;;;;25.34;43.08;99304.47;341540;28;1070;-74
2022/07/26 00:05:49;;;;;;;1.85;0.90;;;;;;;25.31;43.10;99295.78;340702;28;2090;-74
2022/07/26 00:06:01;;;;;;;1.92;0.98;;;;;;;25.27;42.88;99312.19;341341;28;1023;-74
2022/07/26 00:06:14;;;;;;;2.90;1.08;;;;;;;25.08;43.32;99306.00;341310;28;1070;-74
2022/07/26 00:06:26;;;;;;;3.00;1.20;;;;;;;25.02;43.54;99301.31;341030;28;1068;-74
2022/07/26 00:06:38;;;;;;;3.00;1.23;;;;;;;25.08;43.28;99300.69;340131;29;1121;-74
2022/07/26 00:06:50;;;;;;;2.20;1.10;;;;;;;25.06;43.32;99305.31;339996;29;742;-75
2022/07/26 00:07:02;;;;;;;2.17;1.00;;;;;;;25.14;42.64;99303.75;340132;28;1123;-75
2022/07/26 00:07:14;;;;;;;2.47;0.98;;;;;;;25.23;42.86;99308.16;340197;28;1092;-75
2022/07/26 00:07:26;;;;;;;2.33;1.00;;;;;;;25.28;42.85;99308.56;340927;29;1751;-75
2022/07/26 00:07:47;;;;;;;3.28;1.30;;;;;;;25.31;42.76;99300.25;341313;28;1039;-75
2022/07/26 00:08:09;;;;;;;3.40;1.40;;;;;;;25.35;42.72;99314.91;341228;28;1015;-74
2022/07/26 00:08:21;;;;;;;2.60;1.02;;;;;;;25.29;42.81;99307.56;341115;28;1071;-74
2022/07/26 00:08:33;;;;;;;3.20;1.00;;;;;;;25.15;42.63;99310.72;341157;28;1602;-72
2022/07/26 00:08:46;;;;;;;1.88;0.93;;;;;;;25.17;43.09;99308.75;341033;28;1304;-73
2022/07/26 00:08:58;;;;;;;1.42;0.90;;;;;;;25.21;43.08;99303.03;340942;28;1185;-73
2022/07/26 00:09:10;;;;;;;1.20;1.00;;;;;;;25.23;43.42;99310.81;340558;29;1258;-73
2022/07/26 00:09:22;;;;;;;1.70;0.95;;;;;;;25.26;43.18;99313.19;341186;28;1119;-74
2022/07/26 00:09:34;;;;;;;2.45;1.00;;;;;;;25.28;42.81;99311.22;341241;28;1106;-73
2022/07/26 00:09:47;;;;;;;2.35;1.10;;;;;;;25.31;42.53;99305.56;341209;28;1215;-74
2022/07/26 00:09:59;;;;;;;2.58;1.10;;;;;;;25.33;42.64;99311.56;341400;28;1070;-74
2022/07/26 00:10:12;;;;;;;2.58;1.10;;;;;;;25.35;42.25;99301.63;342319;28;1304;-74
2022/07/26 00:10:24;;;;;;;2.40;1.10;;;;;;;25.38;42.58;99311.97;342162;28;1039;-74
2022/07/26 00:10:47;;;;;;;1.60;1.10;;;;;;;25.40;42.29;99310.00;342525;28;1272;-75
2022/07/26 00:10:59;;;;;;;1.35;0.88;;;;;;;25.41;42.25;99306.31;341349;28;2066;-74
2022/07/26 00:11:18;;;;;;;2.33;1.05;;;;;;;25.27;42.32;99309.53;341068;29;1645;-74
2022/07/26 00:11:32;;;;;;;2.70;1.20;;;;;;;25.29;42.69;99307.56;340784;29;1070;-74
2022/07/26 00:11:44;;;;;;;1.77;1.10;;;;;;;25.32;42.77;99307.25;340882;29;1236;-74
2022/07/26 00:11:56;;;;;;;1.27;1.00;;;;;;;25.31;42.48;99309.09;341098;29;1160;-73
2022/07/26 00:12:09;;;;;;;1.88;1.02;;;;;;;25.23;42.67;99309.03;341515;28;1505;-74
2022/07/26 00:12:21;;;;;;;2.08;1.10;;;;;;;25.24;42.46;99316.00;340821;29;3387;-74
2022/07/26 00:12:33;;;;;;;1.67;1.05;;;;;;;25.27;42.77;99313.06;341285;28;1026;-74
2022/07/26 00:12:45;;;;;;;1.23;1.00;;;;;;;25.25;42.85;99308.84;341389;28;1206;-74
2022/07/26 00:12:57;;;;;;;1.38;1.05;;;;;;;25.28;42.65;99312.03;341236;28;985;-75
2022/07/26 00:13:10;;;;;;;1.58;1.10;;;;;;;25.35;42.52;99306.13;341358;28;1139;-74
2022/07/26 00:13:22;;;;;;;3.15;1.20;;;;;;;25.35;42.32;99306.13;341292;28;1057;-74
2022/07/26 00:13:34;;;;;;;2.90;1.25;;;;;;;25.38;42.27;99311.97;341383;28;1191;-74
2022/07/26 00:13:46;;;;;;;1.23;1.02;;;;;;;25.42;42.07;99307.19;340436;28;1270;-74
2022/07/26 00:14:02;;;;;;;1.00;0.90;;;;;;;25.42;43.01;99308.00;339884;29;1023;-74
2022/07/26 00:14:14;;;;;;;2.70;0.93;;;;;;;25.45;42.39;99301.53;339535;29;1101;-74
2022/07/26 00:14:26;;;;;;;3.55;1.08;;;;;;;25.47;42.39;99313.72;339406;29;1059;-74
2022/07/26 00:14:38;;;;;;;2.45;1.00;;;;;;;25.49;42.08;99303.75;339560;29;1047;-74
2022/07/26 00:14:52;;;;;;;2.20;1.00;;;;;;;25.51;42.14;99307.09;339388;29;1068;-74
2022/07/26 00:15:07;;;;;;;1.95;1.08;;;;;;;25.52;42.71;99303.44;340870;29;1106;-74
2022/07/26 00:15:19;;;;;;;1.42;1.10;;;;;;;25.56;42.41;99303.13;340884;29;1010;-74
2022/07/26 00:15:31;;;;;;;1.23;1.02;;;;;;;25.56;42.10;99311.13;340850;29;1158;-74
2022/07/26 00:15:43;;;;;;;1.25;0.98;;;;;;;25.59;41.94;99302.81;340733;29;1196;-73
2022/07/26 00:15:56;;;;;;;2.70;1.20;;;;;;;25.56;41.86;99303.13;340790;29;1069;-74
2022/07/26 00:16:08;;;;;;;2.58;1.17;;;;;;;25.31;42.03;99302.91;341144;28;1907;-73
2022/07/26 00:16:20;;;;;;;1.75;1.10;;;;;;;25.37;42.18;99309.47;341122;28;1055;-74
2022/07/26 00:16:34;;;;;;;1.63;1.10;;;;;;;25.38;41.86;99306.66;341388;28;1067;-74
2022/07/26 00:16:46;;;;;;;2.38;1.15;;;;;;;25.42;41.86;99308.00;341241;29;807;-73
2022/07/26 00:16:59;;;;;;;3.00;1.10;;;;;;;25.37;42.17;99306.78;341030;28;1151;-73
2022/07/26 00:17:11;;;;;;;2.40;1.02;;;;;;;25.42;41.84;99304.53;341050;28;1309;-73
2022/07/26 00:17:22;;;;;;;1.73;1.00;;;;;;;25.32;42.07;99307.25;340401;28;2113;-74
2022/07/26 00:17:34;;;;;;;1.35;0.90;;;;;;;25.34;41.82;99309.78;341147;28;1043;-74
2022/07/26 00:17:46;;;;;;;2.88;0.90;;;;;;;25.31;42.07;99305.56;341130;28;1036;-74
2022/07/26 00:17:58;;;;;;;2.85;0.90;;;;;;;25.29;42.19;99307.56;341254;28;1031;-74
2022/07/26 00:18:11;;;;;;;2.97;1.00;;;;;;;25.33;42.22;99308.91;340588;28;2291;-73
2022/07/26 00:18:23;;;;;;;1.88;1.00;;;;;;;25.37;42.09;99310.28;340108;29;1091;-73
2022/07/26 00:18:35;;;;;;;2.80;1.02;;;;;;;25.41;41.96;99308.97;340013;29;1277;-73
2022/07/26 00:18:47;;;;;;;3.50;1.00;;;;;;;25.44;41.95;99310.53;340098;28;1050;-73
2022/07/26 00:18:59;;;;;;;2.95;1.00;;;;;;;25.48;42.21;99310.06;340359;29;1990;-73
2022/07/26 00:19:11;;;;;;;3.63;1.00;;;;;;;25.51;41.93;99307.09;340808;28;1280;-74
2022/07/26 00:19:23;;;;;;;2.88;1.00;;;;;;;25.52;41.64;99308.75;340978;28;1268;-74
2022/07/26 00:19:35;;;;;;;1.08;0.95;;;;;;;25.52;41.93;99303.44;341085;28;1190;-73
2022/07/26 00:19:47;;;;;;;0.90;0.90;;;;;;;25.50;41.88;99308.06;342239;28;1239;-73
2022/07/26 00:19:59;;;;;;;1.05;0.95;;;;;;;25.50;41.76;99307.25;342085;28;1232;-73
2022/07/26 00:20:11;;;;;;;1.60;1.00;;;;;;;25.47;41.84;99305.75;341920;28;1091;-73
2022/07/26 00:20:23;;;;;;;2.95;1.10;;;;;;;25.49;41.85;99310.88;341877;28;1057;-73
2022/07/26 00:20:39;;;;;;;3.28;1.10;;;;;;;25.54;41.73;99305.94;339963;29;1047;-73
2022/07/26 00:20:52;;;;;;;2.60;1.00;;;;;;;25.57;41.75;99304.78;339793;29;1339;-74
2022/07/26 00:21:06;;;;;;;2.90;1.10;;;;;;;25.60;41.87;99310.66;340454;29;2330;-74
2022/07/26 00:21:19;;;;;;;2.20;0.95;;;;;;;25.64;41.83;99313.84;340625;29;1616;-73
2022/07/26 00:21:31;;;;;;;1.00;0.85;;;;;;;25.64;41.61;99305.84;341025;29;1111;-73
2022/07/26 00:21:43;;;;;;;1.23;0.90;;;;;;;25.64;41.78;99304.03;340671;29;1039;-74
2022/07/26 00:22:35;;;;;;;1.80;1.00;;;;;;;25.64;41.58;99313.84;339504;29;1247;-74
2022/07/26 00:22:47;;;;;;;1.90;1.10;;;;;;;25.51;41.68;99307.09;340610;29;1307;-74
2022/07/26 00:22:59;;;;;;;2.05;1.08;;;;;;;25.55;41.56;99306.78;340814;29;1035;-74
2022/07/26 00:23:11;;;;;;;2.25;1.08;;;;;;;25.57;41.34;99318.09;340772;29;1100;-74
2022/07/26 00:23:23;;;;;;;2.28;1.08;;;;;;;25.61;41.10;99311.47;340664;29;1637;-74
2022/07/26 00:23:35;;;;;;;1.75;0.90;;;;;;;25.63;41.31;99301.50;341069;29;1100;-74
2022/07/26 00:23:48;;;;;;;1.73;0.95;;;;;;;25.66;41.31;99311.84;340469;29;1781;-74
2022/07/26 00:24:00;;;;;;;1.15;1.05;;;;;;;25.67;41.23;99308.19;341539;28;1345;-74
2022/07/26 00:24:12;;;;;;;1.23;1.00;;;;;;;25.70;41.40;99310.56;341049;28;1131;-74
2022/07/26 00:24:23;;;;;;;1.30;1.02;;;;;;;25.71;41.27;99309.56;341092;28;1303;-74
2022/07/26 00:24:38;;;;;;;1.33;1.00;;;;;;;25.73;41.20;99304.91;341063;28;1348;-74
2022/07/26 00:24:50;;;;;;;1.80;1.05;;;;;;;25.73;41.07;99310.22;340938;28;1158;-73
2022/07/26 00:25:05;;;;;;;2.08;1.10;;;;;;;25.76;41.12;99314.44;341894;28;1299;-73
2022/07/26 00:25:18;;;;;;;1.88;1.10;;;;;;;25.76;40.96;99311.75;343736;28;1078;-73
2022/07/26 00:25:30;;;;;;;2.15;1.00;;;;;;;25.75;41.37;99313.56;342190;28;1229;-73
2022/07/26 00:25:41;;;;;;;2.15;1.00;;;;;;;25.75;41.46;99308.25;342265;28;1262;-73
2022/07/26 00:25:53;;;;;;;2.00;0.90;;;;;;;25.71;42.02;99306.88;342430;28;1228;-74
2022/07/26 00:26:05;;;;;;;1.57;0.97;;;;;;;25.73;41.37;99315.56;342214;28;1071;-73
2022/07/26 00:26:18;;;;;;;1.90;1.00;;;;;;;25.74;41.44;99311.91;342322;28;1160;-73
2022/07/26 00:26:30;;;;;;;1.55;1.00;;;;;;;25.76;41.64;99307.28;342544;28;722;-74
2022/07/26 00:26:42;;;;;;;1.77;1.00;;;;;;;25.77;41.33;99311.59;342198;28;1307;-74
2022/07/26 00:26:54;;;;;;;2.10;1.00;;;;;;;25.69;41.53;99316.84;342331;28;1213;-74
2022/07/26 00:27:06;;;;;;;3.45;1.10;;;;;;;25.73;41.05;99310.22;342209;28;1123;-74
2022/07/26 00:27:17;;;;;;;3.17;1.10;;;;;;;25.74;41.05;99311.91;341131;28;2093;-73
2022/07/26 00:27:30;;;;;;;2.10;1.00;;;;;;;25.74;40.64;99305.75;340293;28;1351;-73
2022/07/26 00:27:42;;;;;;;1.40;1.00;;;;;;;25.74;41.03;99309.25;339773;29;1304;-74
2022/07/26 00:27:54;;;;;;;1.20;1.00;;;;;;;25.75;41.04;99312.75;339764;29;1035;-73
2022/07/26 00:28:06;;;;;;;1.30;1.05;;;;;;;25.77;41.35;99311.59;339768;29;1252;-74
2022/07/26 00:28:20;;;;;;;1.58;1.00;;;;;;;25.80;41.30;99307.81;339740;29;1151;-73
2022/07/26 00:28:32;;;;;;;2.55;1.00;;;;;;;25.82;41.09;99314.63;339792;29;1099;-73
2022/07/26 00:28:44;;;;;;;2.58;1.00;;;;;;;25.82;41.33;99317.28;339819;29;1008;-75
2022/07/26 00:28:57;;;;;;;2.88;1.10;;;;;;;25.81;41.26;99312.94;340384;29;3907;-74
2022/07/26 00:29:09;;;;;;;1.65;1.00;;;;;;;25.83;41.02;99308.31;341156;28;1491;-74
2022/07/26 00:29:21;;;;;;;1.33;0.95;;;;;;;25.84;41.10;99309.97;341319;28;1063;-75
2022/07/26 00:29:33;;;;;;;1.80;1.00;;;;;;;25.83;40.97;99312.78;341281;28;1050;-74
2022/07/26 00:29:45;;;;;;;1.70;1.00;;;;;;;25.82;40.93;99309.31;341154;28;1036;-74
2022/07/26 00:29:58;;;;;;;1.98;1.10;;;;;;;25.83;40.77;99308.31;341248;28;1254;-74
2022/07/26 00:30:10;;;;;;;1.23;1.10;;;;;;;25.84;40.77;99314.47;341228;28;1068;-74
2022/07/26 00:30:23;;;;;;;1.55;1.05;;;;;;;25.83;40.70;99305.63;341327;28;1228;-74
2022/07/26 00:30:36;;;;;;;1.60;1.02;;;;;;;25.84;40.99;99307.31;341359;28;1170;-74
2022/07/26 00:30:48;;;;;;;1.25;0.85;;;;;;;25.84;41.03;99312.66;341566;28;1461;-74
2022/07/26 00:31:00;;;;;;;1.48;0.93;;;;;;;25.79;41.00;99308.78;341197;28;1619;-75
2022/07/26 00:31:12;;;;;;;1.83;1.00;;;;;;;25.78;41.56;99315.94;341131;28;1270;-73
2022/07/26 00:31:25;;;;;;;2.92;1.10;;;;;;;25.74;41.18;99311.91;340091;29;1390;-74
2022/07/26 00:31:37;;;;;;;2.90;1.13;;;;;;;25.72;41.27;99319.22;340200;29;1119;-74
2022/07/26 00:31:49;;;;;;;2.03;1.15;;;;;;;25.72;41.26;99308.56;339893;29;1019;-73
2022/07/26 00:32:02;;;;;;;1.70;1.00;;;;;;;25.68;41.13;99312.53;340998;29;1059;-74
2022/07/26 00:32:14;;;;;;;1.65;1.00;;;;;;;25.69;40.87;99314.19;340948;28;1184;-74
2022/07/26 00:32:26;;;;;;;2.78;1.20;;;;;;;25.66;40.97;99309.19;341380;28;1222;-74
2022/07/26 00:32:39;;;;;;;2.80;1.30;;;;;;;25.69;40.93;99317.69;341399;28;1062;-74
2022/07/26 00:32:54;;;;;;;2.50;1.23;;;;;;;25.72;40.99;99313.91;341464;28;1126;-74
2022/07/26 00:33:06;;;;;;;1.65;1.13;;;;;;;25.76;40.56;99315.25;340012;29;895;-74
2022/07/26 00:33:19;;;;;;;1.77;1.17;;;;;;;25.77;40.74;99322.25;339755;29;1055;-74
2022/07/26 00:33:31;;;;;;;1.48;1.17;;;;;;;25.75;41.12;99313.56;339961;29;1229;-73
2022/07/26 00:33:43;;;;;;;1.20;1.10;;;;;;;25.68;40.57;99313.38;340105;29;1636;-74
2022/07/26 00:33:56;;;;;;;1.10;1.00;;;;;;;25.68;41.08;99323.19;340686;28;1073;-73
2022/07/26 00:34:08;;;;;;;1.13;1.00;;;;;;;25.70;40.85;99310.56;341170;28;1234;-74
2022/07/26 00:34:20;;;;;;;1.50;1.00;;;;;;;25.72;40.42;99319.22;341511;28;1021;-74
2022/07/26 00:34:32;;;;;;;2.08;1.00;;;;;;;25.75;40.55;99323.41;341453;28;1099;-74
2022/07/26 00:34:44;;;;;;;1.83;0.88;;;;;;;25.76;40.61;99315.25;341451;28;1240;-74
2022/07/26 00:34:56;;;;;;;1.92;1.00;;;;;;;25.76;40.61;99309.09;340650;28;2198;-74
2022/07/26 00:35:09;;;;;;;1.40;1.00;;;;;;;25.77;40.18;99316.91;339984;29;1345;-74
2022/07/26 00:35:21;;;;;;;1.40;1.10;;;;;;;25.77;40.43;99310.75;340184;28;1250;-73
2022/07/26 00:35:34;;;;;;;1.67;1.02;;;;;;;25.77;40.79;99314.25;340268;29;1067;-73
2022/07/26 00:35:46;;;;;;;2.20;1.02;;;;;;;25.79;40.83;99314.09;340347;28;1283;-73
2022/07/26 00:35:59;;;;;;;2.28;1.00;;;;;;;25.74;40.69;99317.25;340362;29;1031;-74
2022/07/26 00:36:11;;;;;;;2.35;1.00;;;;;;;25.65;40.58;99318.16;340319;29;1079;-74
2022/07/26 00:36:26;;;;;;;2.65;1.10;;;;;;;25.62;40.62;99313.16;340235;29;1221;-75
2022/07/26 00:36:39;;;;;;;1.98;1.10;;;;;;;25.55;41.09;99317.41;340247;29;1590;-73
2022/07/26 00:36:52;;;;;;;1.67;1.10;;;;;;;25.59;41.10;99324.09;340046;29;1279;-73
2022/07/26 00:37:04;;;;;;;2.08;1.10;;;;;;;25.59;40.97;99314.28;341102;28;1242;-73
2022/07/26 00:37:17;;;;;;;1.90;1.10;;;;;;;25.62;40.77;99327.28;340864;28;1063;-73
2022/07/26 00:37:32;;;;;;;1.10;1.00;;;;;;;25.54;40.82;99321.91;341217;28;1004;-73
2022/07/26 00:37:44;;;;;;;2.28;1.08;;;;;;;25.51;41.11;99323.06;341166;28;1112;-73
2022/07/26 00:37:56;;;;;;;2.35;1.00;;;;;;;25.46;41.15;99317.34;340827;29;1910;-73
2022/07/26 00:38:10;;;;;;;1.42;0.93;;;;;;;25.47;41.00;99316.38;341248;29;1114;-73
2022/07/26 00:38:23;;;;;;;1.50;1.00;;;;;;;25.42;41.43;99323.97;341334;28;1080;-73
2022/07/26 00:38:35;;;;;;;1.33;1.00;;;;;;;25.47;41.04;99323.50;341169;29;1027;-74
2022/07/26 00:38:47;;;;;;;1.30;1.00;;;;;;;25.51;41.16;99317.75;341208;28;1054;-73
2022/07/26 00:38:59;;;;;;;1.40;1.00;;;;;;;25.57;40.85;99326.09;341158;29;1129;-73
2022/07/26 00:39:11;;;;;;;1.40;1.00;;;;;;;25.58;40.79;99323.28;341144;28;1038;-73
2022/07/26 00:39:23;;;;;;;1.42;1.10;;;;;;;25.61;41.11;99328.28;341182;28;1167;-74
2022/07/26 00:39:35;;;;;;;2.17;1.10;;;;;;;25.57;41.26;99320.75;341154;29;1026;-73
2022/07/26 00:39:48;;;;;;;4.82;1.15;;;;;;;25.47;41.00;99327.03;341256;28;1039;-74
2022/07/26 00:40:00;;;;;;;5.53;1.30;;;;;;;25.48;41.10;99323.34;341185;28;1099;-74
2022/07/26 00:40:12;;;;;;;3.08;1.20;;;;;;;25.45;41.27;99323.66;340507;28;1633;-74
2022/07/26 00:40:24;;;;;;;1.45;1.10;;;;;;;25.39;41.44;99324.28;339629;29;1098;-74
2022/07/26 00:40:36;;;;;;;1.80;1.10;;;;;;;25.43;41.50;99328.28;339945;29;1091;-73
2022/07/26 00:40:49;;;;;;;1.47;1.10;;;;;;;25.47;41.38;99321.69;339727;29;1040;-73
2022/07/26 00:41:01;;;;;;;4.05;1.20;;;;;;;25.43;41.50;99325.63;339899;29;1308;-73
2022/07/26 00:41:13;;;;;;;3.90;1.10;;;;;;;25.43;41.72;99322.97;339886;29;1036;-74
2022/07/26 00:41:25;;;;;;;3.80;1.20;;;;;;;25.48;41.23;99322.53;339783;29;1228;-73
2022/07/26 00:41:37;;;;;;;1.30;1.10;;;;;;;25.49;41.20;99319.72;340890;29;1208;-73
2022/07/26 00:41:49;;;;;;;2.25;1.13;;;;;;;25.52;41.18;99330.03;341068;28;1271;-73
2022/07/26 00:42:01;;;;;;;2.30;1.10;;;;;;;25.49;41.36;99324.19;341055;28;1027;-73
2022/07/26 00:42:13;;;;;;;1.30;1.10;;;;;;;25.49;41.31;99325.03;341214;28;1093;-73
2022/07/26 00:42:25;;;;;;;2.45;1.17;;;;;;;25.49;41.24;99330.38;341039;28;1290;-73
2022/07/26 00:42:38;;;;;;;2.58;1.10;;;;;;;25.50;41.37;99331.19;340607;28;2372;-73
2022/07/26 00:42:50;;;;;;;2.20;1.10;;;;;;;25.46;41.28;99328.00;340056;29;1725;-73
2022/07/26 00:43:02;;;;;;;2.67;1.10;;;;;;;25.50;41.32;99326.69;340760;29;1206;-74
2022/07/26 00:43:14;;;;;;;2.92;1.10;;;;;;;25.51;41.39;99327.53;341107;28;1149;-74
2022/07/26 00:43:26;;;;;;;2.40;1.00;;;;;;;25.50;41.59;99326.69;341212;28;1095;-74
2022/07/26 00:43:56;;;;;;;2.60;1.00;;;;;;;25.38;41.82;99333.25;341158;28;1138;-73
2022/07/26 00:44:08;;;;;;;1.37;1.13;;;;;;;25.34;41.67;99326.56;341375;28;1114;-74
2022/07/26 00:44:20;;;;;;;1.13;1.00;;;;;;;25.39;41.32;99334.91;341168;28;1034;-74
2022/07/26 00:44:44;;;;;;;2.00;1.00;;;;;;;25.40;41.48;99325.94;341263;29;751;-74
2022/07/26 00:44:56;;;;;;;1.50;1.10;;;;;;;25.40;41.39;99331.28;342450;28;1046;-74
2022/07/26 00:45:10;;;;;;;1.47;1.00;;;;;;;25.43;41.43;99330.94;341580;28;1611;-74
2022/07/26 00:45:22;;;;;;;2.53;0.90;;;;;;;25.47;41.30;99332.34;342108;28;1040;-74
2022/07/26 00:45:37;;;;;;;3.03;1.00;;;;;;;25.40;41.66;99328.63;342386;28;1377;-74
2022/07/26 00:45:49;;;;;;;3.03;1.00;;;;;;;25.39;41.68;99326.94;342147;28;1542;-74
2022/07/26 00:46:02;;;;;;;2.83;1.00;;;;;;;25.38;41.58;99330.59;341096;29;1070;-74
2022/07/26 00:46:14;;;;;;;1.70;1.10;;;;;;;25.29;41.94;99334.16;340928;29;1108;-74
2022/07/26 00:46:27;;;;;;;2.65;1.20;;;;;;;25.21;41.69;99326.06;340868;29;1103;-74
2022/07/26 00:46:45;;;;;;;2.42;1.08;;;;;;;25.26;41.91;99329.16;339978;29;1002;-75
2022/07/26 00:46:57;;;;;;;1.00;0.90;;;;;;;25.27;41.76;99326.34;339053;29;1258;-74
2022/07/26 00:47:09;;;;;;;1.73;0.90;;;;;;;25.30;41.71;99333.19;338084;29;2164;-74
2022/07/26 00:47:21;;;;;;;1.90;1.13;;;;;;;25.34;41.54;99326.56;339273;29;1322;-74
2022/07/26 00:47:34;;;;;;;1.98;1.27;;;;;;;25.37;41.64;99328.06;338319;29;1272;-73
2022/07/26 00:47:46;;;;;;;3.60;1.30;;;;;;;25.39;41.54;99328.75;338486;29;1040;-74
2022/07/26 00:47:58;;;;;;;3.60;1.30;;;;;;;25.40;41.50;99327.78;339206;29;1272;-75
2022/07/26 00:48:10;;;;;;;1.83;1.00;;;;;;;25.42;41.49;99323.97;342437;28;1035;-75
2022/07/26 00:48:22;;;;;;;2.00;1.00;;;;;;;25.44;41.57;99327.31;342694;28;1059;-74
2022/07/26 00:48:34;;;;;;;1.98;1.00;;;;;;;25.46;41.38;99330.66;342192;28;1119;-74
2022/07/26 00:48:46;;;;;;;2.40;1.10;;;;;;;25.45;41.60;99328.16;342129;28;1302;-74
2022/07/26 00:48:58;;;;;;;2.22;1.10;;;;;;;25.45;41.61;99328.97;342049;28;1059;-74
2022/07/26 00:49:11;;;;;;;1.73;0.93;;;;;;;25.46;41.20;99330.66;341373;29;1116;-75
2022/07/26 00:49:24;;;;;;;2.65;0.98;;;;;;;25.47;41.54;99327.03;341029;29;1067;-75
2022/07/26 00:49:36;;;;;;;2.33;1.05;;;;;;;25.48;41.30;99328.69;340926;29;1066;-75
2022/07/26 00:49:48;;;;;;;1.85;1.10;;;;;;;25.50;41.44;99326.69;340848;29;1027;-74
2022/07/26 00:50:00;;;;;;;1.65;1.13;;;;;;;25.50;41.10;99329.38;341675;28;1184;-75
2022/07/26 00:50:16;;;;;;;2.30;1.10;;;;;;;25.50;41.37;99329.38;339825;29;1242;-74
2022/07/26 00:50:28;;;;;;;2.20;1.10;;;;;;;25.51;41.14;99327.53;340677;28;2137;-74
2022/07/26 00:50:40;;;;;;;1.50;1.00;;;;;;;25.51;41.09;99330.19;341086;28;1956;-74
2022/07/26 00:50:53;;;;;;;1.30;1.00;;;;;;;25.51;41.28;99332.84;340746;28;2210;-75
2022/07/26 00:51:05;;;;;;;2.30;1.00;;;;;;;25.47;41.49;99335.00;341048;29;1204;-74
2022/07/26 00:51:17;;;;;;;2.13;1.02;;;;;;;25.45;41.66;99334.28;340923;29;1130;-74
2022/07/26 00:51:29;;;;;;;2.47;1.10;;;;;;;25.45;41.43;99336.97;340989;29;1178;-75
2022/07/26 00:51:42;;;;;;;2.50;1.10;;;;;;;25.44;41.41;99327.31;341233;29;1055;-75
2022/07/26 00:51:57;;;;;;;2.30;1.00;;;;;;;25.35;41.72;99341.53;340945;29;1228;-74
2022/07/26 00:52:10;;;;;;;2.30;1.17;;;;;;;25.34;41.76;99331.88;341210;28;1614;-75
2022/07/26 00:52:22;;;;;;;2.08;1.08;;;;;;;25.34;41.81;99337.22;341196;29;1027;-74
2022/07/26 00:52:36;;;;;;;2.88;1.10;;;;;;;25.35;41.84;99330.88;341274;28;1087;-75
2022/07/26 00:52:49;;;;;;;3.10;1.10;;;;;;;25.37;41.71;99336.88;340049;29;1091;-74
2022/07/26 00:53:01;;;;;;;2.08;1.10;;;;;;;25.36;41.81;99335.22;339772;29;1124;-73
2022/07/26 00:53:13;;;;;;;1.50;0.98;;;;;;;25.37;41.65;99328.91;340108;29;1274;-74
2022/07/26 00:53:25;;;;;;;1.67;1.00;;;;;;;25.36;41.51;99329.91;340334;29;1312;-74
2022/07/26 00:53:37;;;;;;;1.60;1.08;;;;;;;25.35;42.47;99335.38;340283;29;1009;-74
2022/07/26 00:53:49;;;;;;;1.30;1.00;;;;;;;25.33;42.02;99334.69;340114;29;1081;-74
2022/07/26 00:54:03;;;;;;;1.10;1.00;;;;;;;25.33;42.12;99330.19;340006;29;1078;-74
2022/07/26 00:54:15;;;;;;;1.15;1.02;;;;;;;25.34;41.91;99333.72;339918;29;1022;-74
2022/07/26 00:54:27;;;;;;;1.42;1.10;;;;;;;25.34;42.00;99331.88;339873;29;1193;-74
2022/07/26 00:54:45;;;;;;;1.48;1.10;;;;;;;25.36;41.72;99334.41;339762;29;1954;-74
2022/07/26 00:54:57;;;;;;;3.10;1.10;;;;;;;25.36;41.61;99329.09;341393;29;1195;-74
2022/07/26 00:55:14;;;;;;;3.30;1.10;;;;;;;25.36;41.92;99329.09;340718;29;1145;-74
2022/07/26 00:55:26;;;;;;;1.67;1.00;;;;;;;25.33;41.98;99324.88;341732;28;1070;-74
2022/07/26 00:55:40;;;;;;;2.40;1.00;;;;;;;25.35;41.76;99328.22;341639;28;1035;-73
2022/07/26 00:55:52;;;;;;;2.65;1.02;;;;;;;25.35;41.69;99325.56;341572;28;1160;-74
2022/07/26 00:56:04;;;;;;;1.58;1.00;;;;;;;25.34;41.87;99331.88;341059;28;1079;-74
2022/07/26 00:56:16;;;;;;;1.83;1.00;;;;;;;25.36;41.59;99329.91;341210;28;1073;-74
2022/07/26 00:56:30;;;;;;;1.67;1.00;;;;;;;25.34;42.08;99326.56;341265;28;1043;-74
2022/07/26 00:56:43;;;;;;;1.90;1.13;;;;;;;25.36;41.75;99326.41;341068;28;1057;-74
2022/07/26 00:56:55;;;;;;;2.53;1.20;;;;;;;25.33;41.84;99324.06;341271;28;1054;-74
2022/07/26 00:57:07;;;;;;;1.95;1.08;;;;;;;25.34;41.79;99331.88;341194;28;1119;-74
2022/07/26 00:57:21;;;;;;;2.08;1.00;;;;;;;25.35;41.93;99325.56;341053;28;1135;-74
2022/07/26 00:57:34;;;;;;;4.00;0.95;;;;;;;25.34;41.95;99321.25;340794;28;1015;-74
2022/07/26 00:57:46;;;;;;;4.15;1.00;;;;;;;25.28;41.91;99329.84;340430;28;2202;-73
2022/07/26 00:58:00;;;;;;;1.80;1.05;;;;;;;25.29;42.34;99329.69;340984;28;1216;-74
2022/07/26 00:58:12;;;;;;;1.33;1.05;;;;;;;25.32;42.11;99328.53;340669;29;1288;-74
2022/07/26 00:58:24;;;;;;;1.58;1.00;;;;;;;25.33;41.84;99330.19;340679;29;1511;-74
2022/07/26 00:58:36;;;;;;;1.50;1.00;;;;;;;25.33;42.06;99330.19;341247;29;730;-74
2022/07/26 00:58:48;;;;;;;1.55;1.00;;;;;;;25.35;41.96;99335.38;340956;29;1281;-75
2022/07/26 00:59:00;;;;;;;1.70;1.08;;;;;;;25.36;42.20;99335.22;340928;29;1224;-74
2022/07/26 00:59:12;;;;;;;1.75;1.10;;;;;;;25.36;42.03;99335.22;341124;29;1075;-74
2022/07/26 00:59:24;;;;;;;1.98;1.20;;;;;;;25.37;42.07;99336.06;341210;28;1171;-74
2022/07/26 00:59:37;;;;;;;2.20;1.20;;;;;;;25.38;42.03;99340.41;340978;29;1148;-74
2022/07/26 00:59:49;;;;;;;1.65;1.08;;;;;;;25.35;41.92;99338.88;341078;29;1985;-74
2022/07/26 01:00:08;;;;;;;1.55;0.98;;;;;;;25.34;42.26;99342.53;340905;29;1260;-74
2022/07/26 01:00:22;;;;;;;2.53;1.10;;;;;;;25.30;41.71;99342.00;340994;28;1070;-74
2022/07/26 01:00:34;;;;;;;1.63;1.10;;;;;;;25.20;42.29;99345.69;341340;28;1043;-74
2022/07/26 01:00:46;;;;;;;1.38;1.00;;;;;;;25.25;41.95;99343.44;341297;28;1063;-75
2022/07/26 01:00:58;;;;;;;1.42;1.00;;;;;;;25.25;42.15;99340.78;340506;28;1586;-74
2022/07/26 01:01:11;;;;;;;1.58;1.08;;;;;;;25.26;42.17;99345.13;340838;28;1207;-74
2022/07/26 01:01:23;;;;;;;1.92;1.20;;;;;;;25.27;42.06;99346.78;341293;28;1736;-74
2022/07/26 01:01:35;;;;;;;2.60;1.23;;;;;;;25.28;42.09;99343.97;342168;28;1267;-74
2022/07/26 01:01:47;;;;;;;2.50;1.10;;;;;;;25.29;41.94;99344.78;342316;28;1014;-74
2022/07/26 01:02:02;;;;;;;2.05;1.00;;;;;;;25.27;42.21;99337.00;342520;28;1070;-75
2022/07/26 01:02:15;;;;;;;1.50;1.00;;;;;;;25.26;42.20;99345.94;342311;28;1140;-74